createdAt,value
2023-04-03T00:01:04.006Z,34.60
2023-04-03T00:04:15.968Z,34.50
2023-04-03T00:07:26.348Z,34.50
2023-04-03T00:10:35.500Z,33.80
2023-04-03T00:13:48.137Z,34.10
2023-04-03T00:16:58.227Z,34.40
2023-04-03T00:20:06.548Z,34.50
2023-04-03T00:23:18.974Z,35.00
2023-04-03T00:26:30.719Z,35.50
2023-04-03T00:29:44.227Z,35.70
2023-04-03T00:32:55.906Z,35.50
2023-04-03T00:36:06.110Z,35.60
2023-04-03T00:39:15.508Z,35.50
2023-04-03T00:42:27.873Z,35.80
2023-04-03T00:45:40.822Z,35.80
2023-04-03T00:48:52.823Z,35.80
2023-04-03T00:52:01.094Z,35.80
2023-04-03T00:55:15.413Z,35.90
2023-04-03T00:58:30.528Z,35.90
2023-04-03T01:01:42.458Z,36.00
2023-04-03T01:04:51.957Z,36.40
2023-04-03T01:08:02.039Z,36.20
2023-04-03T01:11:15.068Z,36.40
2023-04-03T01:14:23.231Z,36.40
2023-04-03T01:17:35.109Z,36.20
2023-04-03T01:21:34.344Z,36.00
2023-04-03T01:24:47.061Z,35.90
2023-04-03T01:27:54.470Z,35.70
2023-04-03T01:31:11.635Z,35.60
2023-04-03T01:34:23.702Z,35.80
2023-04-03T01:37:37.840Z,35.70
2023-04-03T01:40:52.430Z,35.70
2023-04-03T01:44:02.896Z,35.60
2023-04-03T01:47:13.132Z,35.60
2023-04-03T01:50:22.294Z,35.60
2023-04-03T01:53:33.147Z,35.50
2023-04-03T01:56:44.864Z,35.50
2023-04-03T01:59:53.826Z,35.50
2023-04-03T02:03:06.620Z,35.60
2023-04-03T02:06:19.050Z,35.50
2023-04-03T02:09:29.194Z,35.50
2023-04-03T02:12:37.375Z,35.20
2023-04-03T02:15:46.880Z,35.40
2023-04-03T02:18:54.281Z,35.50
2023-04-03T02:22:03.388Z,35.40
2023-04-03T02:25:18.830Z,35.30
2023-04-03T02:28:33.304Z,35.50
2023-04-03T02:31:44.609Z,35.50
2023-04-03T02:34:56.214Z,35.60
2023-04-03T02:38:09.005Z,35.60
2023-04-03T02:41:21.515Z,35.80
2023-04-03T02:44:32.581Z,36.00
2023-04-03T02:47:44.543Z,36.40
2023-04-03T02:50:55.606Z,36.30
2023-04-03T02:54:05.322Z,36.60
2023-04-03T02:57:14.464Z,37.20
2023-04-03T03:00:26.618Z,37.20
2023-04-03T03:03:38.081Z,37.10
2023-04-03T03:06:48.035Z,37.60
2023-04-03T03:09:57.078Z,37.30
2023-04-03T03:13:09.046Z,37.30
2023-04-03T03:16:21.793Z,37.20
2023-04-03T03:19:34.370Z,37.00
2023-04-03T03:22:44.694Z,36.80
2023-04-03T03:25:57.039Z,36.80
2023-04-03T03:29:07.858Z,36.80
2023-04-03T03:32:16.120Z,37.10
2023-04-03T03:35:26.878Z,36.80
2023-04-03T03:38:36.325Z,36.70
2023-04-03T03:41:44.533Z,37.00
2023-04-03T03:44:56.856Z,37.00
2023-04-03T03:48:05.527Z,36.80
2023-04-03T03:51:16.411Z,36.60
2023-04-03T03:54:25.724Z,36.70
2023-04-03T03:57:36.021Z,36.80
2023-04-03T04:00:47.838Z,36.50
2023-04-03T04:04:01.393Z,36.50
2023-04-03T04:07:11.228Z,36.60
2023-04-03T04:10:20.683Z,36.70
2023-04-03T04:13:31.970Z,36.70
2023-04-03T04:16:41.038Z,36.70
2023-04-03T04:19:51.935Z,36.80
2023-04-03T04:23:02.477Z,36.80
2023-04-03T04:26:12.522Z,36.90
2023-04-03T04:29:23.967Z,36.80
2023-04-03T04:32:33.542Z,36.90
2023-04-03T04:35:46.154Z,36.80
2023-04-03T04:38:58.273Z,36.90
2023-04-03T04:42:09.157Z,37.10
2023-04-03T04:45:20.639Z,37.00
2023-04-03T04:48:34.185Z,37.10
2023-04-03T04:51:52.045Z,37.10
2023-04-03T04:55:00.661Z,37.10
2023-04-03T04:58:10.457Z,37.10
2023-04-03T05:01:22.533Z,37.70
2023-04-03T05:04:35.936Z,37.10
2023-04-03T05:07:45.435Z,37.10
2023-04-03T05:10:57.141Z,37.20
2023-04-03T05:14:09.809Z,37.10
2023-04-03T05:17:20.868Z,37.20
2023-04-03T05:20:31.718Z,37.00
2023-04-03T05:23:41.717Z,37.10
2023-04-03T05:26:52.350Z,37.20
2023-04-03T05:30:01.949Z,37.10
2023-04-03T05:33:14.410Z,37.20
2023-04-03T05:36:25.229Z,37.10
2023-04-03T05:39:34.625Z,37.20
2023-04-03T05:42:47.578Z,37.30
2023-04-03T05:45:58.292Z,37.10
2023-04-03T05:49:11.881Z,37.20
2023-04-03T05:52:24.904Z,37.10
2023-04-03T05:55:35.332Z,37.30
2023-04-03T05:58:45.126Z,37.30
2023-04-03T06:01:54.698Z,37.20
2023-04-03T06:05:05.860Z,37.10
2023-04-03T06:08:18.003Z,37.00
2023-04-03T06:11:28.246Z,37.10
2023-04-03T06:14:36.779Z,37.10
2023-04-03T06:17:45.775Z,37.10
2023-04-03T06:20:57.431Z,37.00
2023-04-03T06:24:04.830Z,37.00
2023-04-03T06:27:17.559Z,37.20
2023-04-03T06:30:28.334Z,37.10
2023-04-03T06:33:42.502Z,37.00
2023-04-03T06:36:52.188Z,37.00
2023-04-03T06:40:01.956Z,37.10
2023-04-03T06:43:15.602Z,37.20
2023-04-03T06:46:25.018Z,36.90
2023-04-03T06:49:35.539Z,37.00
2023-04-03T06:52:48.325Z,36.90
2023-04-03T06:55:59.691Z,37.10
2023-04-03T06:59:12.130Z,37.10
2023-04-03T07:02:25.927Z,37.00
2023-04-03T07:05:39.931Z,36.90
2023-04-03T07:08:50.823Z,37.00
2023-04-03T07:12:04.660Z,37.00
2023-04-03T07:15:21.208Z,37.00
2023-04-03T07:18:30.262Z,37.10
2023-04-03T07:21:42.153Z,37.10
2023-04-03T07:24:52.739Z,36.90
2023-04-03T07:28:05.851Z,36.70
2023-04-03T07:31:15.593Z,36.30
2023-04-03T07:34:24.427Z,36.20
2023-04-03T07:37:38.241Z,36.90
2023-04-03T07:40:49.538Z,36.50
2023-04-03T07:44:01.095Z,36.70
2023-04-03T07:47:11.358Z,36.60
2023-04-03T07:50:23.174Z,36.60
2023-04-03T07:53:34.887Z,36.70
2023-04-03T07:56:45.431Z,36.70
2023-04-03T07:59:56.056Z,36.80
2023-04-03T08:03:09.606Z,37.00
2023-04-03T08:06:29.397Z,36.80
2023-04-03T08:09:34.489Z,36.80
2023-04-03T08:12:43.180Z,36.50
2023-04-03T08:15:55.655Z,36.30
2023-04-03T08:19:12.411Z,36.20
2023-04-03T08:22:20.114Z,36.40
2023-04-03T08:25:31.826Z,36.80
2023-04-03T08:28:42.006Z,36.80
2023-04-03T08:31:51.436Z,37.00
2023-04-03T08:35:00.718Z,36.80
2023-04-03T08:38:11.213Z,36.80
2023-04-03T08:41:24.895Z,36.80
2023-04-03T08:44:44.471Z,36.90
2023-04-03T08:47:56.699Z,36.90
2023-04-03T08:51:12.632Z,37.10
2023-04-03T08:54:24.750Z,37.00
2023-04-03T08:57:38.468Z,36.90
2023-04-03T09:00:53.088Z,36.60
2023-04-03T09:04:06.906Z,36.40
2023-04-03T09:07:19.256Z,36.50
2023-04-03T09:10:31.709Z,36.80
2023-04-03T09:13:46.802Z,37.00
2023-04-03T09:16:58.871Z,37.00
2023-04-03T09:20:16.727Z,36.90
2023-04-03T09:23:31.988Z,36.90
2023-04-03T09:26:47.388Z,37.10
2023-04-03T09:29:59.205Z,37.10
2023-04-03T09:33:10.843Z,36.90
2023-04-03T09:36:24.076Z,36.60
2023-04-03T09:39:34.852Z,36.60
2023-04-03T09:42:48.954Z,36.50
2023-04-03T09:45:58.110Z,36.80
2023-04-03T09:49:09.902Z,37.00
2023-04-03T09:52:28.418Z,37.10
2023-04-03T09:55:40.752Z,37.10
2023-04-03T09:58:53.260Z,37.20
2023-04-03T10:02:09.307Z,37.30
2023-04-03T10:05:38.670Z,37.10
2023-04-03T10:08:52.497Z,37.00
2023-04-03T10:12:09.162Z,36.70
2023-04-03T10:15:22.388Z,36.70
2023-04-03T10:18:55.040Z,36.60
2023-04-03T10:22:05.688Z,36.90
2023-04-03T10:25:18.810Z,37.00
2023-04-03T10:28:32.738Z,37.10
2023-04-03T10:31:46.894Z,37.20
2023-04-03T10:35:05.195Z,37.30
2023-04-03T10:38:13.299Z,37.20
2023-04-03T10:41:28.685Z,37.10
2023-04-03T10:44:47.107Z,36.90
2023-04-03T10:48:01.172Z,36.70
2023-04-03T10:51:19.172Z,36.70
2023-04-03T10:54:35.469Z,36.70
2023-04-03T10:57:48.277Z,37.00
2023-04-03T11:00:58.275Z,37.10
2023-04-03T11:04:11.413Z,37.20
2023-04-03T11:07:21.833Z,37.10
2023-04-03T11:10:36.436Z,37.50
2023-04-03T11:13:50.861Z,37.70
2023-04-03T11:17:07.722Z,37.50
2023-04-03T11:20:24.510Z,38.10
2023-04-03T11:23:45.843Z,37.90
2023-04-03T11:26:48.891Z,37.80
2023-04-03T11:30:01.543Z,37.80
2023-04-03T11:33:30.986Z,38.00
2023-04-03T11:36:46.971Z,38.10
2023-04-03T11:39:58.981Z,38.20
2023-04-03T11:43:11.936Z,37.80
2023-04-03T11:46:22.473Z,37.80
2023-04-03T11:50:01.811Z,37.80
2023-04-03T11:53:34.010Z,37.80
2023-04-03T11:56:44.619Z,37.00
2023-04-03T11:59:56.269Z,37.30
2023-04-03T12:03:12.591Z,37.20
2023-04-03T12:07:10.857Z,37.30
2023-04-03T12:10:32.313Z,37.70
2023-04-03T12:13:37.263Z,37.90
2023-04-03T12:16:51.476Z,37.80
2023-04-03T12:20:01.359Z,37.90
2023-04-03T12:23:37.623Z,37.80
2023-04-03T12:26:49.863Z,37.40
2023-04-03T12:30:08.216Z,37.30
2023-04-03T12:33:39.500Z,37.60
2023-04-03T12:36:56.771Z,37.40
2023-04-03T12:40:20.238Z,37.20
2023-04-03T12:43:39.617Z,37.40
2023-04-03T12:46:52.729Z,37.20
2023-04-03T12:50:04.128Z,37.10
2023-04-03T12:53:19.357Z,37.00
2023-04-03T12:56:33.734Z,36.60
2023-04-03T12:59:47.133Z,36.20
2023-04-03T13:02:52.817Z,35.90
2023-04-03T13:06:02.198Z,36.00
2023-04-03T13:09:19.640Z,35.80
2023-04-03T13:12:32.470Z,35.90
2023-04-03T13:15:50.350Z,36.50
2023-04-03T13:18:58.938Z,36.40
2023-04-03T13:22:08.751Z,36.30
2023-04-03T13:25:18.118Z,36.40
2023-04-03T13:28:28.741Z,36.20
2023-04-03T13:31:39.866Z,36.10
2023-04-03T13:34:50.003Z,35.50
2023-04-03T13:38:00.662Z,35.50
2023-04-03T13:41:26.417Z,35.70
2023-04-03T13:44:42.763Z,35.70
2023-04-03T13:47:53.155Z,35.80
2023-04-03T13:51:07.323Z,35.80
2023-04-03T13:54:22.339Z,35.80
2023-04-03T13:57:33.395Z,36.40
2023-04-03T14:00:46.636Z,36.50
2023-04-03T14:03:54.922Z,36.40
2023-04-03T14:07:04.838Z,36.20
2023-04-03T14:10:18.217Z,36.70
2023-04-03T14:13:24.082Z,36.10
2023-04-03T14:16:35.616Z,35.70
2023-04-03T14:19:47.197Z,35.40
2023-04-03T14:22:57.575Z,36.00
2023-04-03T14:26:12.410Z,35.50
2023-04-03T14:29:21.557Z,35.60
2023-04-03T14:32:34.369Z,35.80
2023-04-03T14:35:45.253Z,36.20
2023-04-03T14:38:55.763Z,36.00
2023-04-03T14:42:08.116Z,36.00
2023-04-03T14:45:20.034Z,36.10
2023-04-03T14:48:29.884Z,36.50
2023-04-03T14:51:42.315Z,36.20
2023-04-03T14:54:53.399Z,35.80
2023-04-03T14:58:04.104Z,35.80
2023-04-03T15:01:15.808Z,35.90
2023-04-03T15:04:28.403Z,36.20
2023-04-03T15:07:41.492Z,35.90
2023-04-03T15:10:54.192Z,36.00
2023-04-03T15:14:07.533Z,36.00
2023-04-03T15:17:20.131Z,36.60
2023-04-03T15:20:33.913Z,36.30
2023-04-03T15:23:46.457Z,35.70
2023-04-03T15:26:53.918Z,35.80
2023-04-03T15:30:05.933Z,36.20
2023-04-03T15:33:14.926Z,36.30
2023-04-03T15:36:34.143Z,36.00
2023-04-03T15:39:37.890Z,35.80
2023-04-03T15:42:48.600Z,36.00
2023-04-03T15:45:59.691Z,36.10
2023-04-03T15:49:11.294Z,36.50
2023-04-03T15:52:19.878Z,35.90
2023-04-03T15:55:28.392Z,35.80
2023-04-03T15:58:43.672Z,35.90
2023-04-03T16:01:54.740Z,36.20
2023-04-03T16:05:02.197Z,36.20
2023-04-03T16:08:13.309Z,36.00
2023-04-03T16:11:24.832Z,36.20
2023-04-03T16:14:37.086Z,36.20
2023-04-03T16:17:46.984Z,36.30
2023-04-03T16:20:56.962Z,36.50
2023-04-03T16:24:08.388Z,36.50
2023-04-03T16:27:18.564Z,37.10
2023-04-03T16:30:28.457Z,37.00
2023-04-03T16:33:38.908Z,37.50
2023-04-03T16:36:49.480Z,37.90
2023-04-03T16:40:00.769Z,38.20
2023-04-03T16:43:10.658Z,38.90
2023-04-03T16:46:20.517Z,39.30
2023-04-03T16:49:32.767Z,39.70
2023-04-03T16:52:42.894Z,40.70
2023-04-03T16:55:55.578Z,40.80
2023-04-03T16:59:08.997Z,40.40
2023-04-03T17:02:19.661Z,40.00
2023-04-03T17:05:28.998Z,39.60
2023-04-03T17:08:40.447Z,39.40
2023-04-03T17:11:50.215Z,38.90
2023-04-03T17:15:00.170Z,39.00
2023-04-03T17:18:12.284Z,38.30
2023-04-03T17:21:24.906Z,38.00
2023-04-03T17:24:37.563Z,38.20
2023-04-03T17:31:03.419Z,38.50
2023-04-03T17:34:12.733Z,39.30
2023-04-03T17:37:22.862Z,38.90
2023-04-03T17:40:32.871Z,38.90
2023-04-03T17:43:45.297Z,38.60
2023-04-03T17:46:56.806Z,37.80
2023-04-03T17:50:07.621Z,37.60
2023-04-03T17:53:16.736Z,37.60
2023-04-03T17:56:26.749Z,37.80
2023-04-03T17:59:37.494Z,37.80
2023-04-03T18:02:46.654Z,37.90
2023-04-03T18:05:59.995Z,38.00
2023-04-03T18:09:14.840Z,38.10
2023-04-03T18:12:26.397Z,38.30
2023-04-03T18:15:39.192Z,38.80
2023-04-03T18:18:47.608Z,38.50
2023-04-03T18:22:02.501Z,38.30
2023-04-03T18:25:14.818Z,38.20
2023-04-03T18:28:28.806Z,37.60
2023-04-03T18:31:41.398Z,37.50
2023-04-03T18:34:53.408Z,37.40
2023-04-03T18:38:04.992Z,37.50
2023-04-03T18:41:14.591Z,37.60
2023-04-03T18:44:28.389Z,37.70
2023-04-03T18:47:38.342Z,37.60
2023-04-03T18:50:51.613Z,37.50
2023-04-03T18:54:01.382Z,37.50
2023-04-03T18:57:15.679Z,37.60
2023-04-03T19:00:30.681Z,37.60
2023-04-03T19:03:44.227Z,37.70
2023-04-03T19:06:57.647Z,37.80
2023-04-03T19:10:08.786Z,37.70
2023-04-03T19:13:18.048Z,38.30
2023-04-03T19:16:29.753Z,38.20
2023-04-03T19:19:41.986Z,38.00
2023-04-03T19:22:50.102Z,37.50
2023-04-03T19:26:06.824Z,37.20
2023-04-03T19:29:18.606Z,37.10
2023-04-03T19:32:27.191Z,37.30
2023-04-03T19:35:38.986Z,37.30
2023-04-03T19:38:47.137Z,37.20
2023-04-03T19:41:56.309Z,37.40
2023-04-03T19:45:09.486Z,37.50
2023-04-03T19:48:20.456Z,37.70
2023-04-03T19:51:31.376Z,37.80
2023-04-03T19:54:43.863Z,37.70
2023-04-03T19:57:54.652Z,37.80
2023-04-03T20:01:05.658Z,37.90
2023-04-03T20:04:17.597Z,38.10
2023-04-03T20:07:28.274Z,38.00
2023-04-03T20:10:42.758Z,38.40
2023-04-03T20:13:53.368Z,38.80
2023-04-03T20:17:04.880Z,38.20
2023-04-03T20:20:20.058Z,38.00
2023-04-03T20:23:30.423Z,37.40
2023-04-03T20:26:43.067Z,38.00
2023-04-03T20:29:54.793Z,37.70
2023-04-03T20:33:06.765Z,37.80
2023-04-03T20:36:17.192Z,37.90
2023-04-03T20:39:30.750Z,37.90
2023-04-03T20:42:41.192Z,38.00
2023-04-03T20:45:53.101Z,38.10
2023-04-03T20:49:04.607Z,38.30
2023-04-03T20:52:15.390Z,38.20
2023-04-03T20:55:27.147Z,38.40
2023-04-03T20:58:35.313Z,38.50
2023-04-03T21:01:45.806Z,38.30
2023-04-03T21:04:57.788Z,38.20
2023-04-03T21:08:42.737Z,37.70
2023-04-03T21:12:25.688Z,37.80
2023-04-03T21:15:49.605Z,38.00
2023-04-03T21:19:07.781Z,38.00
2023-04-03T21:22:22.338Z,38.20
2023-04-03T21:25:32.477Z,38.40
2023-04-03T21:28:44.472Z,38.60
2023-04-03T21:31:59.622Z,38.80
2023-04-03T21:35:11.783Z,38.80
2023-04-03T21:38:23.214Z,38.60
2023-04-03T21:41:31.639Z,38.60
2023-04-03T21:44:43.177Z,38.60
2023-04-03T21:47:55.875Z,39.40
2023-04-03T21:51:12.776Z,39.30
2023-04-03T21:54:21.356Z,39.80
2023-04-03T21:57:32.930Z,40.10
2023-04-03T22:00:45.328Z,40.20
2023-04-03T22:03:54.535Z,40.60
2023-04-03T22:07:05.772Z,40.60
2023-04-03T22:10:18.432Z,40.50
2023-04-03T22:13:27.985Z,40.60
2023-04-03T22:16:38.982Z,40.30
2023-04-03T22:19:49.918Z,40.80
2023-04-03T22:23:01.346Z,40.60
2023-04-03T22:26:12.882Z,40.10
2023-04-03T22:29:25.422Z,39.80
2023-04-03T22:32:34.304Z,39.20
2023-04-03T22:35:49.384Z,39.30
2023-04-03T22:38:57.948Z,39.30
2023-04-03T22:42:11.460Z,39.60
2023-04-03T22:45:21.561Z,39.40
2023-04-03T22:48:32.335Z,39.60
2023-04-03T22:51:44.298Z,40.00
2023-04-03T22:54:58.014Z,40.20
2023-04-03T22:58:09.086Z,40.10
2023-04-03T23:01:22.449Z,40.00
2023-04-03T23:04:33.458Z,39.70
2023-04-03T23:07:44.360Z,39.50
2023-04-03T23:10:55.719Z,39.70
2023-04-03T23:14:05.880Z,40.20
2023-04-03T23:17:16.615Z,40.40
2023-04-03T23:20:28.040Z,40.80
2023-04-03T23:23:36.310Z,40.60
2023-04-03T23:26:47.946Z,40.60
2023-04-03T23:29:59.528Z,40.90
2023-04-03T23:33:09.301Z,40.90
2023-04-03T23:36:22.285Z,40.80
2023-04-03T23:39:32.247Z,40.50
2023-04-03T23:42:40.684Z,40.00
2023-04-03T23:45:52.150Z,39.40
2023-04-03T23:49:02.284Z,39.50
2023-04-03T23:52:11.503Z,39.30
2023-04-03T23:55:23.583Z,39.60
2023-04-03T23:58:37.063Z,39.70
